createdAt,value
2023-05-18T00:00:36.489Z,3.63
2023-05-18T00:03:05.003Z,3.58
2023-05-18T00:05:34.357Z,3.70
2023-05-18T00:08:03.120Z,3.70
2023-05-18T00:10:31.570Z,4.28
2023-05-18T00:13:01.322Z,3.75
2023-05-18T00:15:29.843Z,3.40
2023-05-18T00:17:58.675Z,3.60
2023-05-18T00:20:27.674Z,3.20
2023-05-18T00:22:56.170Z,4.22
2023-05-18T00:25:24.678Z,3.60
2023-05-18T00:27:53.015Z,3.88
2023-05-18T00:30:24.655Z,4.00
2023-05-18T00:35:21.453Z,3.58
2023-05-18T00:37:49.849Z,3.95
2023-05-18T00:40:18.392Z,3.60
2023-05-18T00:42:46.649Z,4.50
2023-05-18T00:45:14.916Z,3.60
2023-05-18T00:47:44.579Z,3.90
2023-05-18T00:50:13.311Z,3.83
2023-05-18T00:52:42.473Z,3.55
2023-05-18T00:55:13.219Z,3.70
2023-05-18T00:57:44.680Z,3.97
2023-05-18T01:00:14.257Z,4.03
2023-05-18T01:02:45.599Z,3.35
2023-05-18T01:07:43.859Z,3.72
2023-05-18T01:10:16.520Z,3.70
2023-05-18T01:12:50.461Z,3.97
2023-05-18T01:15:21.645Z,3.95
2023-05-18T01:18:07.261Z,4.10
2023-05-18T01:20:38.951Z,4.50
2023-05-18T01:23:20.678Z,3.47
2023-05-18T01:25:57.478Z,4.47
2023-05-18T01:28:31.118Z,4.22
2023-05-18T01:31:00.734Z,3.53
2023-05-18T01:33:29.057Z,4.30
2023-05-18T01:35:57.586Z,4.03
2023-05-18T01:38:28.576Z,4.25
2023-05-18T01:41:04.066Z,4.15
2023-05-18T01:43:35.849Z,4.43
2023-05-18T01:46:12.074Z,3.97
2023-05-18T01:48:49.287Z,4.35
2023-05-18T01:51:22.452Z,3.75
2023-05-18T01:53:58.782Z,4.55
2023-05-18T01:56:28.597Z,4.57
2023-05-18T01:58:59.455Z,4.03
2023-05-18T02:01:28.126Z,3.80
2023-05-18T02:03:56.842Z,4.18
2023-05-18T02:06:25.272Z,3.90
2023-05-18T02:08:53.882Z,3.72
2023-05-18T02:11:22.181Z,4.35
2023-05-18T02:13:50.599Z,4.35
2023-05-18T02:16:20.435Z,4.28
2023-05-18T02:18:48.795Z,4.07
2023-05-18T02:21:17.141Z,4.40
2023-05-18T02:23:45.427Z,4.25
2023-05-18T02:26:16.074Z,3.38
2023-05-18T02:28:44.367Z,4.00
2023-05-18T02:31:13.143Z,3.65
2023-05-18T02:33:43.203Z,3.85
2023-05-18T02:36:13.614Z,3.90
2023-05-18T02:38:44.488Z,3.72
2023-05-18T02:41:13.282Z,4.13
2023-05-18T02:43:41.883Z,3.88
2023-05-18T02:46:10.252Z,4.13
2023-05-18T02:48:38.678Z,4.40
2023-05-18T02:51:08.469Z,3.83
2023-05-18T02:53:36.815Z,3.58
2023-05-18T02:56:12.344Z,4.07
2023-05-18T02:58:58.264Z,3.90
2023-05-18T03:01:53.758Z,4.72
2023-05-18T03:04:25.810Z,3.78
2023-05-18T03:06:58.422Z,4.97
2023-05-18T03:09:27.047Z,4.40
2023-05-18T03:11:56.812Z,4.30
2023-05-18T03:14:25.501Z,4.28
2023-05-18T03:16:57.817Z,4.45
2023-05-18T03:19:27.152Z,4.40
2023-05-18T03:21:57.983Z,4.50
2023-05-18T03:24:30.199Z,4.90
2023-05-18T03:27:00.978Z,5.57
2023-05-18T03:29:31.472Z,4.63
2023-05-18T03:32:02.504Z,4.72
2023-05-18T03:34:30.878Z,4.80
2023-05-18T03:37:00.943Z,5.00
2023-05-18T03:39:30.298Z,4.55
2023-05-18T03:41:59.050Z,4.45
2023-05-18T03:44:27.414Z,4.78
2023-05-18T03:46:58.435Z,4.65
2023-05-18T03:49:27.652Z,4.78
2023-05-18T03:51:56.353Z,5.10
2023-05-18T03:54:26.288Z,4.63
2023-05-18T03:56:54.646Z,5.20
2023-05-18T03:59:23.004Z,4.50
2023-05-18T04:01:54.044Z,5.60
2023-05-18T04:04:27.643Z,5.00
2023-05-18T04:06:56.563Z,4.85
2023-05-18T04:09:28.095Z,4.95
2023-05-18T04:11:56.582Z,5.13
2023-05-18T04:14:28.202Z,4.63
2023-05-18T04:19:25.359Z,4.55
2023-05-18T04:21:54.642Z,5.00
2023-05-18T04:24:23.102Z,4.65
2023-05-18T04:26:52.770Z,5.35
2023-05-18T04:29:23.276Z,4.80
2023-05-18T04:31:53.738Z,4.97
2023-05-18T04:34:22.115Z,5.35
2023-05-18T04:36:50.709Z,4.88
2023-05-18T04:39:19.336Z,5.07
2023-05-18T04:41:47.664Z,4.63
2023-05-18T04:44:18.311Z,5.20
2023-05-18T04:46:47.555Z,4.88
2023-05-18T04:49:16.372Z,5.28
2023-05-18T04:51:46.855Z,5.05
2023-05-18T04:54:16.138Z,4.63
2023-05-18T04:56:47.333Z,4.85
2023-05-18T04:59:17.071Z,4.53
2023-05-18T05:01:46.183Z,4.75
2023-05-18T05:04:14.864Z,4.47
2023-05-18T05:06:43.140Z,4.25
2023-05-18T05:09:14.169Z,4.50
2023-05-18T05:11:42.937Z,4.53
2023-05-18T05:14:11.499Z,4.47
2023-05-18T05:16:41.262Z,4.20
2023-05-18T05:19:09.698Z,4.38
2023-05-18T05:21:38.093Z,4.85
2023-05-18T05:24:08.462Z,4.35
2023-05-18T05:26:37.759Z,4.53
2023-05-18T05:29:06.045Z,4.32
2023-05-18T05:31:34.713Z,3.83
2023-05-18T05:34:04.623Z,4.25
2023-05-18T05:36:33.804Z,3.90
2023-05-18T05:39:02.183Z,4.22
2023-05-18T05:41:32.390Z,3.90
2023-05-18T05:44:02.110Z,4.05
2023-05-18T05:46:30.484Z,4.47
2023-05-18T05:49:02.158Z,3.93
2023-05-18T05:51:32.134Z,4.55
2023-05-18T05:54:00.763Z,3.90
2023-05-18T05:56:29.183Z,4.28
2023-05-18T05:58:57.994Z,4.32
2023-05-18T06:01:27.535Z,4.15
2023-05-18T06:03:56.057Z,4.13
2023-05-18T06:06:24.829Z,3.85
2023-05-18T06:08:54.978Z,4.00
2023-05-18T06:11:23.793Z,3.75
2023-05-18T06:13:52.639Z,4.10
2023-05-18T06:16:20.999Z,4.43
2023-05-18T06:18:49.990Z,3.95
2023-05-18T06:21:18.410Z,4.25
2023-05-18T06:23:47.401Z,3.75
2023-05-18T06:26:37.330Z,3.90
2023-05-18T06:29:24.105Z,4.03
2023-05-18T06:32:15.716Z,4.22
2023-05-18T06:34:47.400Z,4.70
2023-05-18T06:37:15.953Z,4.07
2023-05-18T06:39:44.322Z,4.43
2023-05-18T06:42:14.333Z,4.15
2023-05-18T06:44:52.671Z,3.92
2023-05-18T06:47:24.483Z,4.43
2023-05-18T06:49:52.964Z,3.85
2023-05-18T06:52:22.193Z,3.67
2023-05-18T06:54:51.540Z,3.55
2023-05-18T06:57:21.223Z,4.35
2023-05-18T06:59:53.691Z,4.22
2023-05-18T07:02:22.265Z,4.22
2023-05-18T07:04:50.903Z,4.28
2023-05-18T07:07:19.392Z,4.07
2023-05-18T07:09:49.825Z,4.13
2023-05-18T07:12:18.224Z,3.88
2023-05-18T07:14:48.239Z,4.22
2023-05-18T07:17:16.643Z,3.42
2023-05-18T07:19:44.964Z,3.50
2023-05-18T07:22:13.362Z,3.53
2023-05-18T07:24:41.633Z,3.38
2023-05-18T07:27:09.943Z,3.55
2023-05-18T07:29:38.282Z,3.70
2023-05-18T07:32:08.121Z,3.20
2023-05-18T07:34:36.462Z,3.35
2023-05-18T07:37:05.217Z,3.60
2023-05-18T07:39:33.516Z,2.72
2023-05-18T07:42:02.597Z,3.40
2023-05-18T07:44:31.081Z,3.92
2023-05-18T07:46:59.513Z,2.95
2023-05-18T07:49:29.224Z,3.15
2023-05-18T07:51:58.392Z,2.90
2023-05-18T07:54:27.551Z,3.05
2023-05-18T07:56:56.846Z,2.63
2023-05-18T07:59:26.562Z,2.60
2023-05-18T08:01:55.053Z,3.15
2023-05-18T08:04:23.485Z,3.55
2023-05-18T08:06:56.174Z,3.40
2023-05-18T08:09:24.462Z,3.00
2023-05-18T08:11:53.380Z,3.17
2023-05-18T08:14:21.697Z,2.88
2023-05-18T08:16:50.107Z,3.10
2023-05-18T08:19:18.603Z,2.97
2023-05-18T08:21:47.090Z,2.70
2023-05-18T08:24:16.798Z,3.30
2023-05-18T08:26:45.108Z,2.72
2023-05-18T08:29:13.496Z,2.70
2023-05-18T08:31:42.403Z,3.15
2023-05-18T08:34:10.781Z,2.80
2023-05-18T08:36:39.314Z,3.17
2023-05-18T08:39:08.874Z,3.00
2023-05-18T08:41:44.967Z,2.95
2023-05-18T08:44:18.092Z,3.63
2023-05-18T08:46:48.339Z,3.10
2023-05-18T08:49:20.461Z,3.65
2023-05-18T08:51:55.431Z,3.45
2023-05-18T08:54:25.183Z,2.85
2023-05-18T08:56:55.246Z,3.55
2023-05-18T08:59:26.157Z,3.40
2023-05-18T09:01:55.573Z,3.38
2023-05-18T09:04:24.993Z,3.53
2023-05-18T09:06:56.383Z,3.20
2023-05-18T09:09:26.491Z,2.78
2023-05-18T09:11:57.127Z,3.20
2023-05-18T09:14:26.760Z,3.00
2023-05-18T09:16:55.515Z,2.90
2023-05-18T09:19:24.789Z,3.22
2023-05-18T09:21:53.397Z,3.30
2023-05-18T09:24:24.496Z,3.40
2023-05-18T09:26:53.461Z,3.40
2023-05-18T09:29:24.192Z,3.40
2023-05-18T09:31:54.280Z,3.47
2023-05-18T09:34:24.406Z,3.80
2023-05-18T09:36:54.034Z,3.58
2023-05-18T09:39:22.498Z,3.30
2023-05-18T09:41:56.787Z,3.15
2023-05-18T09:44:32.954Z,3.22
2023-05-18T09:47:01.536Z,3.88
2023-05-18T09:49:31.549Z,3.78
2023-05-18T09:52:00.498Z,3.35
2023-05-18T09:54:28.940Z,4.10
2023-05-18T09:57:09.694Z,3.80
2023-05-18T09:59:41.431Z,3.85
2023-05-18T10:02:13.111Z,4.03
2023-05-18T10:04:44.160Z,4.07
2023-05-18T10:07:13.546Z,3.83
2023-05-18T10:09:43.230Z,4.00
2023-05-18T10:12:15.916Z,4.22
2023-05-18T10:14:47.124Z,4.32
2023-05-18T10:17:17.443Z,3.60
2023-05-18T10:19:47.107Z,4.05
2023-05-18T10:22:18.001Z,4.13
2023-05-18T10:24:50.108Z,4.13
2023-05-18T10:27:21.310Z,3.60
2023-05-18T10:29:52.518Z,3.90
2023-05-18T10:32:24.281Z,3.80
2023-05-18T10:37:24.780Z,3.50
2023-05-18T10:39:55.918Z,3.80
2023-05-18T10:42:26.646Z,3.90
2023-05-18T10:44:58.467Z,3.67
2023-05-18T10:47:28.358Z,3.78
2023-05-18T10:49:59.629Z,3.58
2023-05-18T10:52:31.832Z,3.42
2023-05-18T10:55:01.038Z,3.60
2023-05-18T10:57:35.663Z,3.33
2023-05-18T11:00:09.363Z,3.35
2023-05-18T11:02:42.456Z,3.72
2023-05-18T11:05:12.887Z,3.55
2023-05-18T11:07:41.680Z,3.60
2023-05-18T11:10:11.660Z,3.90
2023-05-18T11:12:41.596Z,3.75
2023-05-18T11:15:12.084Z,3.40
2023-05-18T11:17:40.474Z,3.13
2023-05-18T11:20:17.470Z,3.13
2023-05-18T11:22:51.497Z,3.47
2023-05-18T11:25:39.774Z,3.38
2023-05-18T11:28:10.305Z,3.42
2023-05-18T11:30:53.035Z,3.40
2023-05-18T11:33:26.950Z,3.08
2023-05-18T11:36:03.692Z,3.80
2023-05-18T11:38:55.559Z,3.72
2023-05-18T11:41:35.355Z,3.10
2023-05-18T11:44:16.044Z,3.55
2023-05-18T11:46:56.615Z,3.92
2023-05-18T11:49:26.540Z,3.33
2023-05-18T11:52:18.071Z,3.60
2023-05-18T11:54:48.076Z,3.35
2023-05-18T11:57:18.610Z,3.55
2023-05-18T11:59:48.457Z,3.20
2023-05-18T12:02:25.250Z,3.25
2023-05-18T12:04:55.183Z,3.20
2023-05-18T12:07:25.179Z,2.70
2023-05-18T12:09:53.550Z,3.00
2023-05-18T12:12:23.446Z,2.78
2023-05-18T12:14:57.134Z,2.78
2023-05-18T12:17:39.107Z,2.75
2023-05-18T12:20:09.267Z,3.00
2023-05-18T12:22:37.634Z,3.50
2023-05-18T12:25:07.025Z,3.70
2023-05-18T12:27:40.735Z,3.50
2023-05-18T12:30:14.131Z,3.00
2023-05-18T12:32:48.429Z,3.00
2023-05-18T12:35:16.814Z,3.00
2023-05-18T12:37:46.210Z,2.65
2023-05-18T12:40:16.236Z,2.90
2023-05-18T12:42:53.916Z,3.25
2023-05-18T12:45:25.130Z,2.75
2023-05-18T12:47:56.353Z,2.75
2023-05-18T12:50:26.694Z,2.55
2023-05-18T12:52:56.319Z,2.75
2023-05-18T12:55:25.549Z,2.53
2023-05-18T12:58:01.889Z,3.20
2023-05-18T13:00:34.083Z,3.03
2023-05-18T13:03:15.098Z,2.60
2023-05-18T13:05:46.053Z,2.63
2023-05-18T13:08:18.119Z,2.97
2023-05-18T13:10:50.864Z,3.17
2023-05-18T13:13:23.823Z,2.95
2023-05-18T13:15:52.595Z,2.95
2023-05-18T13:18:22.326Z,2.97
2023-05-18T13:20:52.466Z,3.60
2023-05-18T13:23:22.559Z,5.78
2023-05-18T13:25:51.851Z,7.55
2023-05-18T13:28:21.967Z,6.50
2023-05-18T13:30:51.241Z,6.22
2023-05-18T13:33:24.458Z,6.13
2023-05-18T13:35:52.847Z,5.72
2023-05-18T13:38:21.089Z,5.28
2023-05-18T13:40:49.396Z,5.07
2023-05-18T13:43:17.684Z,5.10
2023-05-18T13:45:46.013Z,5.53
2023-05-18T13:48:14.370Z,4.85
2023-05-18T13:50:44.410Z,4.22
2023-05-18T13:53:12.719Z,3.75
2023-05-18T13:55:41.309Z,4.30
2023-05-18T13:58:09.775Z,4.07
2023-05-18T14:00:38.054Z,3.88
2023-05-18T14:03:06.458Z,3.92
2023-05-18T14:05:34.900Z,4.20
2023-05-18T14:08:04.701Z,3.63
2023-05-18T14:10:33.088Z,3.83
2023-05-18T14:13:01.634Z,3.70
2023-05-18T14:15:30.300Z,3.28
2023-05-18T14:17:58.654Z,3.60
2023-05-18T14:20:26.935Z,3.47
2023-05-18T14:22:55.220Z,3.85
2023-05-18T14:25:24.882Z,3.30
2023-05-18T14:27:53.229Z,3.45
2023-05-18T14:30:21.587Z,3.33
2023-05-18T14:32:49.896Z,3.88
2023-05-18T14:35:18.266Z,3.30
2023-05-18T14:37:46.601Z,3.40
2023-05-18T14:40:15.323Z,2.85
2023-05-18T14:42:44.913Z,3.20
2023-05-18T14:45:13.319Z,2.90
2023-05-18T14:47:41.872Z,3.13
2023-05-18T14:50:10.923Z,3.17
2023-05-18T14:52:39.570Z,3.20
2023-05-18T14:55:08.586Z,2.90
2023-05-18T14:57:36.878Z,2.80
2023-05-18T15:00:07.863Z,2.72
2023-05-18T15:02:36.299Z,2.80
2023-05-18T15:05:05.139Z,2.85
2023-05-18T15:07:33.359Z,2.53
2023-05-18T15:10:01.757Z,3.20
2023-05-18T15:12:30.167Z,2.63
2023-05-18T15:14:58.488Z,2.70
2023-05-18T15:17:28.184Z,2.45
2023-05-18T15:19:57.359Z,2.22
2023-05-18T15:22:25.685Z,2.78
2023-05-18T15:24:54.026Z,2.55
2023-05-18T15:27:22.447Z,2.90
2023-05-18T15:29:50.736Z,12.23
2023-05-18T15:32:19.083Z,51.72
2023-05-18T15:34:48.779Z,53.15
2023-05-18T15:37:17.033Z,62.95
2023-05-18T15:39:45.558Z,41.70
2023-05-18T15:42:13.816Z,42.97
2023-05-18T15:44:42.141Z,38.90
2023-05-18T15:47:10.392Z,45.58
2023-05-18T15:49:38.704Z,39.13
2023-05-18T15:52:09.215Z,29.05
2023-05-18T15:54:37.612Z,20.92
2023-05-18T15:57:07.597Z,14.02
2023-05-18T15:59:36.004Z,39.70
2023-05-18T16:02:04.580Z,57.22
2023-05-18T16:04:33.057Z,71.55
2023-05-18T16:07:02.644Z,80.32
2023-05-18T16:09:32.697Z,73.18
2023-05-18T16:12:01.056Z,43.80
2023-05-18T16:14:29.362Z,27.42
2023-05-18T16:16:57.947Z,18.63
2023-05-18T16:19:26.374Z,50.60
2023-05-18T16:21:54.706Z,80.20
2023-05-18T16:24:22.964Z,82.15
2023-05-18T16:26:52.624Z,106.95
2023-05-18T16:29:20.958Z,63.10
2023-05-18T16:31:49.272Z,51.70
2023-05-18T16:34:17.720Z,40.22
2023-05-18T16:36:46.129Z,42.28
2023-05-18T16:39:14.398Z,29.20
2023-05-18T16:41:42.822Z,18.02
2023-05-18T16:44:12.437Z,12.10
2023-05-18T16:46:40.821Z,9.10
2023-05-18T16:49:09.080Z,6.68
2023-05-18T16:51:37.477Z,5.00
2023-05-18T16:54:06.896Z,4.75
2023-05-18T16:56:35.846Z,3.25
2023-05-18T16:59:04.704Z,3.33
2023-05-18T17:01:34.425Z,2.88
2023-05-18T17:04:02.841Z,3.03
2023-05-18T17:06:31.229Z,2.90
2023-05-18T17:08:59.550Z,2.85
2023-05-18T17:11:28.874Z,2.97
2023-05-18T17:13:57.743Z,2.67
2023-05-18T17:16:27.261Z,2.45
2023-05-18T17:18:57.705Z,2.45
2023-05-18T17:21:28.352Z,2.30
2023-05-18T17:23:56.990Z,2.53
2023-05-18T17:26:30.324Z,2.67
2023-05-18T17:28:58.725Z,3.10
2023-05-18T17:31:27.292Z,2.80
2023-05-18T17:33:57.076Z,2.70
2023-05-18T17:36:25.640Z,2.92
2023-05-18T17:38:54.004Z,3.70
2023-05-18T17:41:22.629Z,3.20
2023-05-18T17:43:50.895Z,4.20
2023-05-18T17:46:19.308Z,3.65
2023-05-18T17:48:48.247Z,4.50
2023-05-18T17:51:17.902Z,4.38
2023-05-18T17:53:46.369Z,4.45
2023-05-18T17:56:14.965Z,4.63
2023-05-18T17:58:43.259Z,4.80
2023-05-18T18:01:12.229Z,5.00
2023-05-18T18:03:41.661Z,4.32
2023-05-18T18:06:10.126Z,4.32
2023-05-18T18:08:39.786Z,3.80
2023-05-18T18:11:09.584Z,3.55
2023-05-18T18:13:38.221Z,3.25
2023-05-18T18:16:07.254Z,3.05
2023-05-18T18:18:37.129Z,3.28
2023-05-18T18:21:06.326Z,3.20
2023-05-18T18:23:34.856Z,2.90
2023-05-18T18:26:05.928Z,2.97
2023-05-18T18:28:34.949Z,2.88
2023-05-18T18:31:03.532Z,2.92
2023-05-18T18:33:32.826Z,3.38
2023-05-18T18:36:02.292Z,3.50
2023-05-18T18:38:30.567Z,3.45
2023-05-18T18:41:01.756Z,3.50
2023-05-18T18:43:31.749Z,3.33
2023-05-18T18:46:00.475Z,3.60
2023-05-18T18:48:28.965Z,2.80
2023-05-18T18:50:57.338Z,3.00
2023-05-18T18:53:25.791Z,2.90
2023-05-18T18:55:54.396Z,2.97
2023-05-18T18:58:24.302Z,3.10
2023-05-18T19:00:54.049Z,2.80
2023-05-18T19:03:22.746Z,2.72
2023-05-18T19:05:51.737Z,2.78
2023-05-18T19:08:19.992Z,2.90
2023-05-18T19:10:48.302Z,2.75
2023-05-18T19:13:16.635Z,2.38
2023-05-18T19:15:45.504Z,2.33
2023-05-18T19:18:15.370Z,2.10
2023-05-18T19:20:43.688Z,2.58
2023-05-18T19:23:12.083Z,2.50
2023-05-18T19:25:40.407Z,2.42
2023-05-18T19:28:08.757Z,3.00
2023-05-18T19:30:37.057Z,2.53
2023-05-18T19:33:05.517Z,2.40
2023-05-18T19:35:35.217Z,2.20
2023-05-18T19:38:03.567Z,2.22
2023-05-18T19:40:31.926Z,2.00
2023-05-18T19:43:01.565Z,2.03
2023-05-18T19:45:30.198Z,2.03
2023-05-18T19:47:58.909Z,2.20
2023-05-18T19:50:27.175Z,1.85
2023-05-18T19:52:56.886Z,2.10
2023-05-18T19:55:25.468Z,1.77
2023-05-18T19:57:54.963Z,2.13
2023-05-18T20:00:23.316Z,2.28
2023-05-18T20:02:52.797Z,1.90
2023-05-18T20:05:24.274Z,2.08
2023-05-18T20:07:52.664Z,2.38
2023-05-18T20:10:22.618Z,2.60
2023-05-18T20:12:51.225Z,2.53
2023-05-18T20:15:19.573Z,2.28
2023-05-18T20:17:47.954Z,2.50
2023-05-18T20:20:20.006Z,2.33
2023-05-18T20:22:48.352Z,2.30
2023-05-18T20:25:16.747Z,2.20
2023-05-18T20:27:46.487Z,2.22
2023-05-18T20:30:14.981Z,1.88
2023-05-18T20:32:43.310Z,2.30
2023-05-18T20:35:12.802Z,2.15
2023-05-18T20:37:41.531Z,2.10
2023-05-18T20:40:10.935Z,2.55
2023-05-18T20:42:40.781Z,2.83
2023-05-18T20:45:12.316Z,2.47
2023-05-18T20:47:41.893Z,2.20
2023-05-18T20:50:10.916Z,2.50
2023-05-18T20:52:39.260Z,2.33
2023-05-18T20:55:09.288Z,2.40
2023-05-18T20:57:39.995Z,2.78
2023-05-18T21:00:12.426Z,2.38
2023-05-18T21:02:41.672Z,2.40
2023-05-18T21:05:10.561Z,2.28
2023-05-18T21:07:40.271Z,2.17
2023-05-18T21:10:10.579Z,1.92
2023-05-18T21:12:39.193Z,2.47
2023-05-18T21:15:08.948Z,2.15
2023-05-18T21:17:38.639Z,2.17
2023-05-18T21:20:09.351Z,2.58
2023-05-18T21:22:37.729Z,2.57
2023-05-18T21:25:06.811Z,2.28
2023-05-18T21:27:36.344Z,1.92
2023-05-18T21:30:04.971Z,2.15
2023-05-18T21:32:33.393Z,2.60
2023-05-18T21:35:03.449Z,2.40
2023-05-18T21:37:31.779Z,2.17
2023-05-18T21:40:00.026Z,2.53
2023-05-18T21:42:28.381Z,2.40
2023-05-18T21:44:56.587Z,2.45
2023-05-18T21:47:24.900Z,2.70
2023-05-18T21:49:53.350Z,2.67
2023-05-18T21:52:23.497Z,2.95
2023-05-18T21:54:51.811Z,2.90
2023-05-18T21:57:20.058Z,2.58
2023-05-18T21:59:48.457Z,2.30
2023-05-18T22:02:16.887Z,2.72
2023-05-18T22:04:45.184Z,3.33
2023-05-18T22:07:13.994Z,3.28
2023-05-18T22:09:43.733Z,3.17
2023-05-18T22:12:12.043Z,3.22
2023-05-18T22:14:40.479Z,2.78
2023-05-18T22:17:08.789Z,3.08
2023-05-18T22:19:37.133Z,3.05
2023-05-18T22:22:06.916Z,2.80
2023-05-18T22:24:36.420Z,3.03
2023-05-18T22:27:06.841Z,3.83
2023-05-18T22:29:35.192Z,3.42
2023-05-18T22:32:03.509Z,3.28
2023-05-18T22:34:31.831Z,3.75
2023-05-18T22:37:00.157Z,3.47
2023-05-18T22:39:28.395Z,2.92
2023-05-18T22:41:56.771Z,3.42
2023-05-18T22:44:26.414Z,3.15
2023-05-18T22:46:54.770Z,3.53
2023-05-18T22:49:23.368Z,3.03
2023-05-18T22:51:52.569Z,4.13
2023-05-18T22:54:20.933Z,3.60
2023-05-18T22:56:49.272Z,3.47
2023-05-18T22:59:17.689Z,3.70
2023-05-18T23:01:47.770Z,3.42
2023-05-18T23:04:18.196Z,3.80
2023-05-18T23:06:48.755Z,3.50
2023-05-18T23:09:17.571Z,3.40
2023-05-18T23:11:46.145Z,3.47
2023-05-18T23:14:14.504Z,3.63
2023-05-18T23:16:43.251Z,3.75
2023-05-18T23:19:13.768Z,3.58
2023-05-18T23:21:42.131Z,3.70
2023-05-18T23:24:12.206Z,3.83
2023-05-18T23:26:42.564Z,3.67
2023-05-18T23:29:11.046Z,3.70
2023-05-18T23:31:39.364Z,3.55
2023-05-18T23:34:08.444Z,3.85
2023-05-18T23:36:42.805Z,3.70
2023-05-18T23:39:11.879Z,4.28
2023-05-18T23:41:40.874Z,4.15
2023-05-18T23:44:09.963Z,4.03
2023-05-18T23:46:39.170Z,3.95
2023-05-18T23:49:08.001Z,3.80
2023-05-18T23:51:38.652Z,3.92
2023-05-18T23:54:09.393Z,4.20
2023-05-18T23:56:38.148Z,3.93
2023-05-18T23:59:07.102Z,3.70
